METAR AND TAF INFORMATION

METAR FOR LPMA
ADDS - METARS form results

(1515 UTC 21 May 2022)
Data provider http://aviationweather.gov/metar/data/
 
METAR text: LPMA 211500Z 02010KT 330V100 9999 SCT016 22/16 Q1021
Conditions at: LPMA (FUNCHAL/MADEIRA , PT) observed 1500 UTC 21 May 2022
Temperature: 22.0°C (72°F)
Dewpoint: 16.0°C (61°F) [RH = 69%]
Pressure (altimeter): 30.15 inches Hg (1021.0 mb)
Winds: from the NNE (20 degrees) at 12 MPH (10 knots; 5.1 m/s)
Visibility: 6 or more miles (10+ km)
Ceiling: at least 12,000 feet AGL
Clouds: scattered clouds at 1600 feet AGL
Weather: no significant weather observed at this time

METAR text: LPMA 211430Z 36009KT 330V030 9999 SCT016 22/15 Q1021
Conditions at: LPMA (FUNCHAL/MADEIRA , PT) observed 1430 UTC 21 May 2022
Temperature: 22.0°C (72°F)
Dewpoint: 15.0°C (59°F) [RH = 65%]
Pressure (altimeter): 30.15 inches Hg (1021.0 mb)
Winds: from the N (360 degrees) at 10 MPH (9 knots; 4.6 m/s)
Visibility: 6 or more miles (10+ km)
Ceiling: at least 12,000 feet AGL
Clouds: scattered clouds at 1600 feet AGL
Weather: no significant weather observed at this time

Forecast for: LPMA (FUNCHAL/MADEIRA , PT)
Text: TAF LPMA 211110Z 2112/2212 01012KT 9999 FEW015
Forecast period: 1200 UTC 21 May 2022 to 1200 UTC 22 May 2022
Forecast type: FROM: standard forecast or significant change
Winds: from the N (10 degrees) at 14 MPH (12 knots; 6.2 m/s)
Visibility: 6 or more miles (10+ km)
Ceiling: at least 12,000 feet AGL
Clouds: few clouds at 1500 feet AGL
Weather: no significant weather forecast for this period
Text: PROB40 2112/2118 21008KT
Forecast period: 1200 to 1800 UTC 21 May 2022
Forecast type: PROBABLE: 40 percent likelihood of the following during this time
Winds: from the SSW (210 degrees) at 9 MPH (8 knots; 4.1 m/s)
Visibility: missing
Ceiling: unknown
Clouds: missing
Weather: no significant weather forecast for this period
Text: TEMPO 2206/2212 BKN015
Forecast period: 0600 to 1200 UTC 22 May 2022
Forecast type: TEMPORARY: The following changes expected for less than half the time period
Visibility: missing
Ceiling: 1500 feet AGL
Clouds: broken clouds at 1500 feet AGL
Weather: no significant weather forecast for this period

 

AIRPORT MAP

 

RUNWAY INFORMATION

Runway 05 Runway length 9110 ft Runway width 148 ft
Runway elevation 147 ft Runway displaced threshold 480 ft Runway heading 45
Runway 23 Runway length 9110 ft Runway width 148 ft
Runway elevation 192 ft Runway displaced threshold 490 ft Runway heading 225

 

AIRPORT FREQUENCIES

Type APP Name APP Frequency 119.2 MHZ
Type TWR Name TWR Frequency 118.35 MHZ

 

AIRPORT NEAR NAVIGATION AIDS

Type VOR-DME Name Madeira Frequency 112200 KHZ
Type NDB Name Madeira Frequency 318 KHZ